createdAt,value
2023-03-17T00:01:03.192Z,6.27
2023-03-17T00:04:06.350Z,6.45
2023-03-17T00:07:11.687Z,6.20
2023-03-17T00:10:20.276Z,6.20
2023-03-17T00:13:25.019Z,6.26
2023-03-17T00:16:30.442Z,6.26
2023-03-17T00:19:35.756Z,6.09
2023-03-17T00:22:39.897Z,6.19
2023-03-17T00:25:43.516Z,6.05
2023-03-17T00:28:48.449Z,6.11
2023-03-17T00:31:51.730Z,6.16
2023-03-17T00:34:54.607Z,6.00
2023-03-17T00:37:59.429Z,6.01
2023-03-17T00:41:02.256Z,5.99
2023-03-17T00:44:06.503Z,5.90
2023-03-17T00:47:10.921Z,5.96
2023-03-17T00:50:16.733Z,5.92
2023-03-17T00:53:21.552Z,5.89
2023-03-17T00:56:24.575Z,5.89
2023-03-17T00:59:31.346Z,5.94
2023-03-17T01:02:34.668Z,6.00
2023-03-17T01:05:37.986Z,5.98
2023-03-17T01:08:41.753Z,5.88
2023-03-17T01:11:44.663Z,5.97
2023-03-17T01:14:49.268Z,6.02
2023-03-17T01:17:53.010Z,5.99
2023-03-17T01:20:55.878Z,5.90
2023-03-17T01:23:58.608Z,5.99
2023-03-17T01:27:01.608Z,6.05
2023-03-17T01:30:07.793Z,5.90
2023-03-17T01:33:12.905Z,5.94
2023-03-17T01:36:16.075Z,5.94
2023-03-17T01:39:19.596Z,5.90
2023-03-17T01:42:22.679Z,5.94
2023-03-17T01:46:03.100Z,6.07
2023-03-17T01:49:15.544Z,6.00
2023-03-17T01:52:21.878Z,5.98
2023-03-17T01:55:24.623Z,6.01
2023-03-17T01:58:27.946Z,5.94
2023-03-17T02:01:37.736Z,6.03
2023-03-17T02:04:41.854Z,5.84
2023-03-17T02:07:46.039Z,5.77
2023-03-17T02:10:50.595Z,5.81
2023-03-17T02:13:54.150Z,5.87
2023-03-17T02:16:57.324Z,5.80
2023-03-17T02:20:15.675Z,5.92
2023-03-17T02:23:24.763Z,5.90
2023-03-17T02:26:29.676Z,5.88
2023-03-17T02:29:36.065Z,5.90
2023-03-17T02:32:39.701Z,5.84
2023-03-17T02:35:43.198Z,5.84
2023-03-17T02:38:47.368Z,5.80
2023-03-17T02:41:50.249Z,5.71
2023-03-17T02:44:53.489Z,5.87
2023-03-17T02:47:57.405Z,5.81
2023-03-17T02:51:00.296Z,5.94
2023-03-17T02:54:04.809Z,5.81
2023-03-17T02:57:08.477Z,5.74
2023-03-17T03:00:14.369Z,5.72
2023-03-17T03:03:17.216Z,5.86
2023-03-17T03:06:20.148Z,6.03
2023-03-17T03:09:24.317Z,6.02
2023-03-17T03:12:27.439Z,5.79
2023-03-17T03:15:30.346Z,5.75
2023-03-17T03:18:33.834Z,5.70
2023-03-17T03:21:37.776Z,5.97
2023-03-17T03:24:42.464Z,5.70
2023-03-17T03:27:45.294Z,5.74
2023-03-17T03:30:48.159Z,5.82
2023-03-17T03:33:50.997Z,5.82
2023-03-17T03:36:53.807Z,5.62
2023-03-17T03:39:57.892Z,5.70
2023-03-17T03:43:07.480Z,5.68
2023-03-17T03:46:15.968Z,5.80
2023-03-17T03:49:18.750Z,5.76
2023-03-17T03:52:21.586Z,5.76
2023-03-17T03:55:25.701Z,5.67
2023-03-17T03:58:28.639Z,5.69
2023-03-17T04:01:31.550Z,5.77
2023-03-17T04:04:34.512Z,5.75
2023-03-17T04:07:38.218Z,5.68
2023-03-17T04:10:42.289Z,5.55
2023-03-17T04:13:45.047Z,5.72
2023-03-17T04:16:47.909Z,5.56
2023-03-17T04:19:50.673Z,5.78
2023-03-17T04:22:53.453Z,5.66
2023-03-17T04:25:58.363Z,5.69
2023-03-17T04:29:01.204Z,5.70
2023-03-17T04:32:04.043Z,5.59
2023-03-17T04:35:09.025Z,5.47
2023-03-17T04:38:13.558Z,5.45
2023-03-17T04:41:17.866Z,5.51
2023-03-17T04:44:20.726Z,5.48
2023-03-17T04:47:23.477Z,5.41
2023-03-17T04:50:26.458Z,5.43
2023-03-17T04:53:29.580Z,5.44
2023-03-17T04:56:33.892Z,5.48
2023-03-17T04:59:36.841Z,5.69
2023-03-17T05:02:39.984Z,5.60
2023-03-17T05:05:42.742Z,5.52
2023-03-17T05:08:45.980Z,5.59
2023-03-17T05:11:51.451Z,5.57
2023-03-17T05:14:54.386Z,5.55
2023-03-17T05:17:57.252Z,5.67
2023-03-17T05:21:00.957Z,5.58
2023-03-17T05:24:03.902Z,5.52
2023-03-17T05:27:08.116Z,5.68
2023-03-17T05:30:12.074Z,5.61
2023-03-17T05:33:16.401Z,5.44
2023-03-17T05:36:19.421Z,5.61
2023-03-17T05:39:22.398Z,5.58
2023-03-17T05:42:26.455Z,5.58
2023-03-17T05:45:30.192Z,5.63
2023-03-17T05:48:33.081Z,5.82
2023-03-17T05:51:37.011Z,5.54
2023-03-17T05:54:40.539Z,5.64
2023-03-17T05:57:44.669Z,5.74
2023-03-17T06:00:47.503Z,5.71
2023-03-17T06:03:50.347Z,5.69
2023-03-17T06:06:53.204Z,5.76
2023-03-17T06:09:55.960Z,5.65
2023-03-17T06:13:01.577Z,5.63
2023-03-17T06:16:06.733Z,5.78
2023-03-17T06:19:09.661Z,5.83
2023-03-17T06:22:12.559Z,5.84
2023-03-17T06:25:15.652Z,6.04
2023-03-17T06:28:19.812Z,5.78
2023-03-17T06:31:24.050Z,5.79
2023-03-17T06:34:27.558Z,6.15
2023-03-17T06:37:30.279Z,5.84
2023-03-17T06:40:34.168Z,6.02
2023-03-17T06:43:38.489Z,6.06
2023-03-17T06:46:41.638Z,6.17
2023-03-17T06:49:44.486Z,6.08
2023-03-17T06:52:47.213Z,6.20
2023-03-17T06:55:50.030Z,6.22
2023-03-17T06:58:54.555Z,6.52
2023-03-17T07:01:57.851Z,6.58
2023-03-17T07:05:00.943Z,6.50
2023-03-17T07:08:03.783Z,6.49
2023-03-17T07:11:06.884Z,6.79
2023-03-17T07:14:11.097Z,6.93
2023-03-17T07:17:15.270Z,6.90
2023-03-17T07:20:18.673Z,7.06
2023-03-17T07:23:23.786Z,7.47
2023-03-17T07:26:27.285Z,7.70
2023-03-17T07:29:33.679Z,7.75
2023-03-17T07:32:36.497Z,7.74
2023-03-17T07:35:40.978Z,7.78
2023-03-17T07:38:44.276Z,7.69
2023-03-17T07:41:52.801Z,7.79
2023-03-17T07:44:56.929Z,7.74
2023-03-17T07:47:59.713Z,7.82
2023-03-17T07:51:02.630Z,7.84
2023-03-17T07:54:06.371Z,7.95
2023-03-17T07:57:09.292Z,8.53
2023-03-17T08:00:15.031Z,8.73
2023-03-17T08:03:19.443Z,8.72
2023-03-17T08:06:22.669Z,9.09
2023-03-17T08:09:25.571Z,9.05
2023-03-17T08:12:28.549Z,8.95
2023-03-17T08:15:32.694Z,8.82
2023-03-17T08:18:35.554Z,8.86
2023-03-17T08:21:38.409Z,9.16
2023-03-17T08:24:42.845Z,9.13
2023-03-17T08:27:45.843Z,9.29
2023-03-17T08:30:50.762Z,9.31
2023-03-17T08:33:57.145Z,9.03
2023-03-17T08:37:01.771Z,9.20
2023-03-17T08:40:06.280Z,9.15
2023-03-17T08:43:09.073Z,9.28
2023-03-17T08:46:22.849Z,9.19
2023-03-17T08:49:26.500Z,9.37
2023-03-17T08:52:29.642Z,9.18
2023-03-17T08:55:32.439Z,9.29
2023-03-17T08:58:35.973Z,9.39
2023-03-17T09:01:41.948Z,9.56
2023-03-17T09:04:44.898Z,9.70
2023-03-17T09:07:49.162Z,9.85
2023-03-17T09:10:52.082Z,10.17
2023-03-17T09:13:55.412Z,10.69
2023-03-17T09:16:59.589Z,10.90
2023-03-17T09:20:02.974Z,11.09
2023-03-17T09:23:08.323Z,11.05
2023-03-17T09:26:11.316Z,11.17
2023-03-17T09:29:15.264Z,10.93
2023-03-17T09:32:19.519Z,11.05
2023-03-17T09:35:22.458Z,11.09
2023-03-17T09:38:26.732Z,11.18
2023-03-17T09:42:18.546Z,11.40
2023-03-17T09:45:31.427Z,11.62
2023-03-17T09:48:48.346Z,11.74
2023-03-17T09:51:52.426Z,12.08
2023-03-17T09:54:55.975Z,12.49
2023-03-17T09:58:00.723Z,12.77
2023-03-17T10:01:05.193Z,12.88
2023-03-17T10:04:11.981Z,13.04
2023-03-17T10:07:19.291Z,13.18
2023-03-17T10:10:30.747Z,13.31
2023-03-17T10:13:49.443Z,13.68
2023-03-17T10:16:58.735Z,13.68
2023-03-17T10:20:08.837Z,14.07
2023-03-17T10:23:16.475Z,14.31
2023-03-17T10:26:30.602Z,14.79
2023-03-17T10:29:33.453Z,14.73
2023-03-17T10:32:38.666Z,14.65
2023-03-17T10:35:44.829Z,14.69
2023-03-17T10:38:54.096Z,14.58
2023-03-17T10:41:58.868Z,14.82
2023-03-17T10:45:05.934Z,15.02
2023-03-17T10:48:10.876Z,15.03
2023-03-17T10:51:23.089Z,14.92
2023-03-17T10:54:26.664Z,15.20
2023-03-17T10:57:30.194Z,15.54
2023-03-17T11:00:36.180Z,15.89
2023-03-17T11:03:41.217Z,15.65
2023-03-17T11:06:47.099Z,15.67
2023-03-17T11:09:51.710Z,15.74
2023-03-17T11:13:00.595Z,16.01
2023-03-17T11:16:11.656Z,15.93
2023-03-17T11:19:18.584Z,16.07
2023-03-17T11:22:32.011Z,16.30
2023-03-17T11:25:40.466Z,16.46
2023-03-17T11:28:48.850Z,16.61
2023-03-17T11:31:59.578Z,16.69
2023-03-17T11:35:25.350Z,16.78
2023-03-17T11:38:31.754Z,17.13
2023-03-17T11:41:45.043Z,16.82
2023-03-17T11:45:16.573Z,17.22
2023-03-17T11:48:39.101Z,17.19
2023-03-17T11:51:57.723Z,16.85
2023-03-17T11:55:13.917Z,17.36
2023-03-17T11:58:27.047Z,17.47
2023-03-17T12:01:45.837Z,17.30
2023-03-17T12:04:54.305Z,17.12
2023-03-17T12:08:00.757Z,17.09
2023-03-17T12:11:10.679Z,16.71
2023-03-17T12:14:26.404Z,16.99
2023-03-17T12:17:35.491Z,16.65
2023-03-17T12:20:48.590Z,16.54
2023-03-17T12:23:58.484Z,16.36
2023-03-17T12:27:05.659Z,16.02
2023-03-17T12:30:20.307Z,16.25
2023-03-17T12:33:29.240Z,16.18
2023-03-17T12:36:32.759Z,15.81
2023-03-17T12:39:39.052Z,16.11
2023-03-17T12:42:53.742Z,16.03
2023-03-17T12:46:17.481Z,15.70
2023-03-17T12:49:47.481Z,15.58
2023-03-17T12:53:12.845Z,15.65
2023-03-17T12:56:23.203Z,15.83
2023-03-17T12:59:27.522Z,15.89
2023-03-17T13:02:38.401Z,15.85
2023-03-17T13:05:47.523Z,15.90
2023-03-17T13:08:51.983Z,15.84
2023-03-17T13:11:55.821Z,15.76
2023-03-17T13:15:00.049Z,15.78
2023-03-17T13:18:24.941Z,16.01
2023-03-17T13:21:27.697Z,16.14
2023-03-17T13:24:43.533Z,15.94
2023-03-17T13:27:49.266Z,16.01
2023-03-17T13:31:11.246Z,16.17
2023-03-17T13:34:17.858Z,16.25
2023-03-17T13:37:29.620Z,16.29
2023-03-17T13:40:39.501Z,16.13
2023-03-17T13:43:57.622Z,15.93
2023-03-17T13:47:25.805Z,16.06
2023-03-17T13:50:33.728Z,16.15
2023-03-17T13:53:41.207Z,15.91
2023-03-17T13:56:50.173Z,15.83
2023-03-17T14:00:04.032Z,15.82
2023-03-17T14:03:14.295Z,16.00
2023-03-17T14:06:18.868Z,16.12
2023-03-17T14:09:32.535Z,16.11
2023-03-17T14:12:41.164Z,16.10
2023-03-17T14:15:50.543Z,15.86
2023-03-17T14:18:59.193Z,15.96
2023-03-17T14:22:19.269Z,15.95
2023-03-17T14:25:24.962Z,15.99
2023-03-17T14:28:30.332Z,15.75
2023-03-17T14:31:33.567Z,15.93
2023-03-17T14:34:43.829Z,15.90
2023-03-17T14:37:46.930Z,16.01
2023-03-17T14:40:50.226Z,15.92
2023-03-17T14:43:56.287Z,15.98
2023-03-17T14:47:03.743Z,15.76
2023-03-17T14:50:17.095Z,15.93
2023-03-17T14:53:24.090Z,15.66
2023-03-17T14:56:32.883Z,15.68
2023-03-17T14:59:37.336Z,15.68
2023-03-17T15:02:42.459Z,15.49
2023-03-17T15:05:47.325Z,15.56
2023-03-17T15:08:50.949Z,15.43
2023-03-17T15:11:56.789Z,15.48
2023-03-17T15:15:03.576Z,15.50
2023-03-17T15:18:13.133Z,15.47
2023-03-17T15:21:32.822Z,15.23
2023-03-17T15:24:40.574Z,15.27
2023-03-17T15:27:43.899Z,15.27
2023-03-17T15:30:49.046Z,15.28
2023-03-17T15:33:52.505Z,15.07
2023-03-17T15:36:57.664Z,15.12
2023-03-17T15:40:02.270Z,15.09
2023-03-17T15:43:05.081Z,15.25
2023-03-17T15:46:11.892Z,15.16
2023-03-17T15:49:14.706Z,15.01
2023-03-17T15:52:23.052Z,14.81
2023-03-17T15:55:29.459Z,14.74
2023-03-17T15:58:32.271Z,14.76
2023-03-17T16:01:35.269Z,14.75
2023-03-17T16:04:38.187Z,14.89
2023-03-17T16:07:42.758Z,14.93
2023-03-17T16:10:46.803Z,14.72
2023-03-17T16:13:49.553Z,14.59
2023-03-17T16:16:53.019Z,14.50
2023-03-17T16:19:56.080Z,14.59
2023-03-17T16:23:05.643Z,14.59
2023-03-17T16:26:15.514Z,14.41
2023-03-17T16:29:20.857Z,14.37
2023-03-17T16:32:26.211Z,14.59
2023-03-17T16:35:29.743Z,14.39
2023-03-17T16:38:35.272Z,14.42
2023-03-17T16:41:38.118Z,14.22
2023-03-17T16:44:41.627Z,14.26
2023-03-17T16:47:44.534Z,14.14
2023-03-17T16:50:47.597Z,14.15
2023-03-17T16:53:51.806Z,14.14
2023-03-17T16:56:54.758Z,14.04
2023-03-17T16:59:57.786Z,14.09
2023-03-17T17:03:00.819Z,14.10
2023-03-17T17:06:03.597Z,14.05
2023-03-17T17:09:07.808Z,13.96
2023-03-17T17:12:11.607Z,13.99
2023-03-17T17:15:17.596Z,13.92
2023-03-17T17:18:24.563Z,13.98
2023-03-17T17:21:27.451Z,13.94
2023-03-17T17:24:31.677Z,13.86
2023-03-17T17:27:34.593Z,13.83
2023-03-17T17:30:37.888Z,13.74
2023-03-17T17:33:41.044Z,13.72
2023-03-17T17:36:43.853Z,13.67
2023-03-17T17:39:48.153Z,13.69
2023-03-17T17:42:51.098Z,13.52
2023-03-17T17:45:54.212Z,13.53
2023-03-17T17:48:57.248Z,13.70
2023-03-17T17:51:59.900Z,13.50
2023-03-17T17:55:04.151Z,13.57
2023-03-17T17:58:07.093Z,13.52
2023-03-17T18:01:11.689Z,13.39
2023-03-17T18:04:14.759Z,13.43
2023-03-17T18:07:17.526Z,13.24
2023-03-17T18:10:24.169Z,13.37
2023-03-17T18:13:27.040Z,13.30
2023-03-17T18:16:29.836Z,13.30
2023-03-17T18:19:32.706Z,13.10
2023-03-17T18:22:35.413Z,13.05
2023-03-17T18:25:39.659Z,13.11
2023-03-17T18:28:43.901Z,13.15
2023-03-17T18:31:51.048Z,13.00
2023-03-17T18:34:54.978Z,13.08
2023-03-17T18:37:58.541Z,13.10
2023-03-17T18:41:04.159Z,12.86
2023-03-17T18:44:10.180Z,12.90
2023-03-17T18:47:15.111Z,12.81
2023-03-17T18:50:18.611Z,12.81
2023-03-17T18:53:22.104Z,12.76
2023-03-17T18:56:29.265Z,12.93
2023-03-17T18:59:32.188Z,12.83
2023-03-17T19:02:34.979Z,12.79
2023-03-17T19:05:39.529Z,12.64
2023-03-17T19:08:43.064Z,12.69
2023-03-17T19:11:47.358Z,12.69
2023-03-17T19:14:50.375Z,12.84
2023-03-17T19:17:53.183Z,12.63
2023-03-17T19:20:57.191Z,12.50
2023-03-17T19:24:01.194Z,12.62
2023-03-17T19:27:06.120Z,12.57
2023-03-17T19:30:10.331Z,12.55
2023-03-17T19:33:14.368Z,12.38
2023-03-17T19:36:17.341Z,12.50
2023-03-17T19:39:20.172Z,12.32
2023-03-17T19:42:24.500Z,12.32
2023-03-17T19:45:27.530Z,12.10
2023-03-17T19:48:30.233Z,12.35
2023-03-17T19:51:33.592Z,12.43
2023-03-17T19:54:37.693Z,12.50
2023-03-17T19:57:42.065Z,12.29
2023-03-17T20:00:45.326Z,12.36
2023-03-17T20:03:48.053Z,12.31
2023-03-17T20:06:55.220Z,12.30
2023-03-17T20:09:57.994Z,12.15
2023-03-17T20:13:02.823Z,12.08
2023-03-17T20:16:06.909Z,12.21
2023-03-17T20:19:09.688Z,12.14
2023-03-17T20:22:12.743Z,12.11
2023-03-17T20:25:15.512Z,12.16
2023-03-17T20:28:24.214Z,12.09
2023-03-17T20:31:27.853Z,12.24
2023-03-17T20:34:31.724Z,12.16
2023-03-17T20:37:35.578Z,12.14
2023-03-17T20:40:38.587Z,12.02
2023-03-17T20:43:43.146Z,12.02
2023-03-17T20:46:47.416Z,11.93
2023-03-17T20:49:50.638Z,12.00
2023-03-17T20:52:53.902Z,12.16
2023-03-17T20:55:56.700Z,12.14
2023-03-17T20:59:05.162Z,12.12
2023-03-17T21:02:14.323Z,12.14
2023-03-17T21:05:19.760Z,12.19
2023-03-17T21:08:23.498Z,12.15
2023-03-17T21:11:26.566Z,12.26
2023-03-17T21:14:30.809Z,12.34
2023-03-17T21:17:34.237Z,12.49
2023-03-17T21:20:37.517Z,12.25
2023-03-17T21:23:41.304Z,12.29
2023-03-17T21:26:43.998Z,12.13
2023-03-17T21:29:48.145Z,12.18
2023-03-17T21:32:51.008Z,11.72
2023-03-17T21:35:54.014Z,11.85
2023-03-17T21:38:57.064Z,11.87
2023-03-17T21:42:01.192Z,11.73
2023-03-17T21:45:06.355Z,11.82
2023-03-17T21:48:09.206Z,11.92
2023-03-17T21:51:12.801Z,11.76
2023-03-17T21:54:15.811Z,11.74
2023-03-17T21:57:18.677Z,11.80
2023-03-17T22:00:25.682Z,11.59
2023-03-17T22:03:30.316Z,11.73
2023-03-17T22:06:33.003Z,11.63
2023-03-17T22:09:36.130Z,11.61
2023-03-17T22:12:39.573Z,11.61
2023-03-17T22:15:44.835Z,11.68
2023-03-17T22:18:47.761Z,11.72
2023-03-17T22:21:51.644Z,11.54
2023-03-17T22:24:56.373Z,11.56
2023-03-17T22:27:59.030Z,11.54
2023-03-17T22:31:05.142Z,11.35
2023-03-17T22:34:09.847Z,11.32
2023-03-17T22:37:12.695Z,11.38
2023-03-17T22:40:15.648Z,11.31
2023-03-17T22:43:18.394Z,11.27
2023-03-17T22:46:23.037Z,11.22
2023-03-17T22:49:25.927Z,11.28
2023-03-17T22:52:28.878Z,11.18
2023-03-17T22:55:31.947Z,11.19
2023-03-17T22:58:35.400Z,11.29
2023-03-17T23:01:39.646Z,11.32
2023-03-17T23:04:42.854Z,11.20
2023-03-17T23:07:52.077Z,11.15
2023-03-17T23:10:56.061Z,11.22
2023-03-17T23:13:58.808Z,11.16
2023-03-17T23:17:03.242Z,11.06
2023-03-17T23:20:07.074Z,11.01
2023-03-17T23:23:11.396Z,10.98
2023-03-17T23:26:14.630Z,10.96
2023-03-17T23:29:17.553Z,11.00
2023-03-17T23:32:22.683Z,11.12
2023-03-17T23:35:25.776Z,11.11
2023-03-17T23:38:28.764Z,10.96
2023-03-17T23:41:31.490Z,11.00
2023-03-17T23:44:34.538Z,10.92
2023-03-17T23:47:39.368Z,10.87
2023-03-17T23:50:42.282Z,10.94
2023-03-17T23:53:46.398Z,11.10
2023-03-17T23:56:49.110Z,11.08
2023-03-17T23:59:52.299Z,11.11
